Ana Sayfa
METAR-TAF:

METAR-TAF

Havaalanları :

Abilene, Teksas, Amerika Birleşik Devletleri

Enlem: 32-24-37N, Boylam: 099-40-54W, yükseklik: 545 m

Güncel hava durumu gözlemi

Rapor saat 14:52 UTC de 35 dakika önce yapıldı.
Rüzgar güney/güneybatıdan 9 kt
Sıcaklık 26°C
Nem 54%
Basınç 1012 hPa
Görüş mesafesi: 16.1 km
Açık gökyüzü

METAR: KABI 181452Z 21009KT 10SM CLR 26/16 A2989 RMK AO2 SLP099 T02560156 51013 $

Saat: 10:27 (15:27 UTC)

Tahmin

Rapor saat 11:20 UTC de 4 saat ve 7 dakika önce yapıldı.
Ayın 18'si saat 12 UTC'den ayın 19'si saat 12 UTC'ye kadar geçerli Tahmin
Rüzgar değişken yönden 5 kt
Görüş mesafesi: 10 km
Açık gökyüzü
Ayın 18'si saat 1500 UTC'den
Rüzgar güney/güneydoğudan 8 kt
Görüş mesafesi: 10 km
Açık gökyüzü

TAF: KABI 181120Z 1812/1912 VRB05KT P6SM SKC FM181500 15008KT P6SM SKC

4.000'den fazla havaalanı için hava durumu gözlemleri ve tahminleri (METAR ve TAF raporları).

Kullanılabilir istasyonlar harita üzerinde sarı ve kırmızı noktalarla gösterilir.

İstasyonun adını görmek için fareyi noktanın üzerinde gezdirin.

Sonrasında hava gözlem ve tahminlerini görmek için tıklayın.

Haritayı değiştirmek için: yaklaştırmak için siyah artı işaretli yeşil düğmeye ve uzaklaştırmak için de eksi işaretli düğmeye hızla tıklayın; bitişik haritalar için yeşil okları kullanın.


METAR-TAF: